Morshansk, Russia
Current Conditions -  °F | °C
As of 6:30 PM on Sunday 23 Nov 2014 (Local Time) from UUOO Reporting Station
Clear Clear  
Wind Chill: 24°   Ceiling: Unl
Heat Index: 30°   Visibility: 6mi
Dew Point: 23°   Wind: 7mph
Humidity: 75%   Direction: 310°NW
Pressure: 30.45"   Gusts: NA
Location:  53.45°N, 41.81°E
Report Text: UUOO 231530Z 31003MPS CAVOK M01/M05 Q1031 NOSIG RMK 30090070
Loading
Personal Weather Stations






























Interactive Weather Map New forecast layout! Learn more

10-Day Weather Forecast

Advertisements
Track Severe Weather on mobile